Private Wetterstation Nrnberg - Katzwang
Wetterdaten: Juli 2013
Datum Temp. A. Feuchte A. Luftdruck Regen Wind Richtung Taupunkt Windchill Windben
01.07.2013 18,5 C 63 % 1016 hPa 0,0 l/m 4,4 km/h N-NO 10,9 C 18,1 C 5,4 km/h
02.07.2013 21,2 C 61 % 1013 hPa 0,0 l/m 0,7 km/h W-NW 13,0 C 21,2 C 1,7 km/h
03.07.2013 18,9 C 74 % 1011 hPa 1,0 l/m 6,1 km/h NO 14,1 C 17,8 C 7,1 km/h
04.07.2013 20,8 C 71 % 1019 hPa 0,0 l/m 0,3 km/h W-NW 15,2 C 20,8 C 1,4 km/h
05.07.2013 20,7 C 65 % 1024 hPa 0,0 l/m 0,9 km/h N-NO 13,7 C 20,7 C 1,9 km/h
06.07.2013 21,6 C 65 % 1025 hPa 0,0 l/m 1,7 km/h N-NO 14,4 C 21,6 C 2,7 km/h
07.07.2013 22,7 C 59 % 1025 hPa 0,0 l/m 12,4 km/h N-NO 14,1 C 21,3 C 13,4 km/h
08.07.2013 22,1 C 57 % 1024 hPa 0,0 l/m 5,1 km/h N-NO 12,9 C 21,8 C 7,5 km/h
09.07.2013 22,6 C 59 % 1019 hPa 0,0 l/m 3,6 km/h O 13,8 C 22,3 C 4,6 km/h
10.07.2013 23,3 C 58 % 1014 hPa 0,0 l/m 3,4 km/h W-NW 14,2 C 23,3 C 4,4 km/h
11.07.2013 17,7 C 59 % 1016 hPa 0,0 l/m 5,6 km/h N-NO 9,4 C 16,9 C 8,5 km/h
12.07.2013 19,3 C 55 % 1018 hPa 0,0 l/m 1,4 km/h N-NO 9,6 C 19,3 C 2,4 km/h
13.07.2013 19,7 C 55 % 1018 hPa 0,0 l/m 0,0 km/h N-NO 9,8 C 19,7 C 1,0 km/h
14.07.2013 21,5 C 54 % 1018 hPa 0,0 l/m 2,6 km/h W-NW 11,4 C 21,3 C 3,6 km/h
15.07.2013 21,2 C 53 % 1019 hPa 0,0 l/m 3,4 km/h N 10,7 C 20,8 C 5,8 km/h
16.07.2013 22,3 C 51 % 1019 hPa 0,0 l/m 1,2 km/h N-NO 11,1 C 22,3 C 2,2 km/h
17.07.2013 23,9 C 52 % 1018 hPa 0,0 l/m 7,5 km/h N-NO 12,6 C 23,6 C 8,5 km/h
18.07.2013 24,1 C 53 % 1018 hPa 0,0 l/m 4,3 km/h NO 13,4 C 23,8 C 8,7 km/h
19.07.2013 24,8 C 51 % 1017 hPa 0,0 l/m 4,1 km/h N-NO 13,5 C 24,7 C 5,1 km/h
20.07.2013 24,3 C 56 % 1016 hPa 0,0 l/m 5,8 km/h N-NO 14,6 C 24,1 C 6,8 km/h
21.07.2013 25,0 C 50 % 1017 hPa 0,0 l/m 2,4 km/h O 13,3 C 24,9 C 3,4 km/h
22.07.2013 25,7 C 49 % 1014 hPa 0,0 l/m 0,0 km/h N-NO 13,3 C 25,7 C 1,0 km/h
23.07.2013 26,1 C 54 % 1012 hPa 0,0 l/m 2,6 km/h NO 14,8 C 26,1 C 3,6 km/h
24.07.2013 22,3 C 70 % 1013 hPa 1,6 l/m 3,9 km/h NO 16,4 C 22,1 C 4,9 km/h
25.07.2013 22,3 C 72 % 1015 hPa 0,0 l/m 3,1 km/h NO 16,9 C 22,1 C 4,1 km/h
26.07.2013 26,3 C 56 % 1013 hPa 0,5 l/m 0,7 km/h O-NO 16,1 C 26,3 C 1,7 km/h
27.07.2013 29,2 C 51 % 1008 hPa 0,0 l/m 2,0 km/h W-NW 17,0 C 29,2 C 3,0 km/h
28.07.2013 25,3 C 62 % 1011 hPa 4,1 l/m 2,9 km/h N-NO 16,7 C 25,3 C 3,9 km/h
29.07.2013 18,9 C 77 % 1014 hPa 7,8 l/m 7,8 km/h W-NW 14,7 C 17,2 C 8,9 km/h
30.07.2013 21,0 C 66 % 1018 hPa 1,0 l/m 1,9 km/h W-NW 14,0 C 20,9 C 2,9 km/h
31.07.2013 22,0 C 65 % 1018 hPa 0,0 l/m 2,2 km/h W-NW 15,1 C 21,8 C 3,2 km/h
Min-Datum 01.07.13 23.07.13 27.07.13 6 Tage 01.07.13 - 01.07.13 01.07.13 01.07.13
Min-Zeit 05:40 15:10 17:50 - 00:00 - 05:40 06:50 00:00
Minimum 8,5 C 24 % 1007 hPa - 0,0 km/h - 5,6 C 6,6 C 1,0 km/h
Max-Datum 27.07.13 30.07.13 06.07.13 29.07.13 23.07.13 - 25.07.13 27.07.13 28.07.13
Max-Zeit 15:10 05:40 00:10 15:40 16:00 - 17:50 15:10 19:10
Maximum 38,8 C 83 % 1027 hPa 7,8 l/m 32,8 km/h
NO
- 20,2 C 38,8 C 48,9 km/h
N-NO
Durchschnitt 22,4 C 59 % 1017 hPa #16,1 l/m 3,4 km/h N-NO 13,6 C 22,2 C 4,6 km/h

Durchschnitt Minimum Temp.15,3 C
Durchschnitt Maximum Temp.28,5 C